createdAt,value
2019-05-28T00:01:03.902Z,7.17
2019-05-28T00:06:10.510Z,8.23
2019-05-28T00:11:17.109Z,7.75
2019-05-28T00:16:23.667Z,8.63
2019-05-28T00:21:30.159Z,9.00
2019-05-28T00:26:36.723Z,8.30
2019-05-28T00:31:43.217Z,8.83
2019-05-28T00:36:49.846Z,9.85
2019-05-28T00:41:56.495Z,10.78
2019-05-28T00:47:03.136Z,11.25
2019-05-28T00:52:09.827Z,11.12
2019-05-28T00:57:17.820Z,10.88
2019-05-28T01:02:25.442Z,6.92
2019-05-28T01:07:31.897Z,5.70
2019-05-28T01:12:38.714Z,5.70
2019-05-28T01:17:45.199Z,5.97
2019-05-28T01:22:51.844Z,6.10
2019-05-28T01:27:58.485Z,6.72
2019-05-28T01:33:05.216Z,6.33
2019-05-28T01:38:11.723Z,6.10
2019-05-28T01:43:18.300Z,4.97
2019-05-28T01:48:25.091Z,6.65
2019-05-28T01:53:31.676Z,6.25
2019-05-28T01:58:38.266Z,5.90
2019-05-28T02:03:44.863Z,5.72
2019-05-28T02:08:51.462Z,5.83
2019-05-28T02:13:58.034Z,6.80
2019-05-28T02:19:04.673Z,7.20
2019-05-28T02:24:11.090Z,7.85
2019-05-28T02:29:17.782Z,8.58
2019-05-28T02:34:24.381Z,8.03
2019-05-28T02:39:31.081Z,6.62
2019-05-28T02:44:37.713Z,6.05
2019-05-28T02:49:44.117Z,6.08
2019-05-28T02:54:51.690Z,6.62
2019-05-28T03:00:02.106Z,8.53
2019-05-28T03:05:08.930Z,8.95
2019-05-28T03:10:18.506Z,8.53
2019-05-28T03:15:27.031Z,8.88
2019-05-28T03:20:36.179Z,8.45
2019-05-28T03:25:43.784Z,8.63
2019-05-28T03:30:50.393Z,9.20
2019-05-28T03:36:01.307Z,9.38
2019-05-28T03:41:08.840Z,9.50
2019-05-28T03:46:15.746Z,10.40
2019-05-28T03:51:22.346Z,11.30
2019-05-28T03:56:28.882Z,12.00
2019-05-28T04:01:35.510Z,11.70
2019-05-28T04:06:42.175Z,13.10
2019-05-28T04:11:49.185Z,12.65
2019-05-28T04:16:55.763Z,14.10
2019-05-28T04:22:02.375Z,13.58
2019-05-28T04:27:08.890Z,15.58
2019-05-28T04:32:15.539Z,15.45
2019-05-28T04:37:22.127Z,17.67
2019-05-28T04:42:28.643Z,18.27
2019-05-28T04:47:35.284Z,17.75
2019-05-28T04:52:42.040Z,20.10
2019-05-28T04:57:48.529Z,19.70
2019-05-28T05:03:00.284Z,19.85
2019-05-28T05:08:03.406Z,19.75
2019-05-28T05:13:10.073Z,18.90
2019-05-28T05:18:16.797Z,17.77
2019-05-28T05:23:23.300Z,17.48
2019-05-28T05:28:30.678Z,17.55
2019-05-28T05:33:37.179Z,18.65
2019-05-28T05:38:43.666Z,17.55
2019-05-28T05:43:50.275Z,18.25
2019-05-28T05:48:57.164Z,18.23
2019-05-28T05:54:03.875Z,18.62
2019-05-28T05:59:10.443Z,18.77
2019-05-28T06:04:16.913Z,15.90
2019-05-28T06:09:23.451Z,12.40
2019-05-28T06:14:30.012Z,10.18
2019-05-28T06:19:36.701Z,8.33
2019-05-28T06:24:43.323Z,6.75
2019-05-28T06:29:49.934Z,7.22
2019-05-28T06:34:56.556Z,7.37
2019-05-28T06:40:03.150Z,7.37
2019-05-28T06:45:12.050Z,7.33
2019-05-28T06:50:18.978Z,7.10
2019-05-28T06:55:25.557Z,7.72
2019-05-28T07:00:32.153Z,7.55
2019-05-28T07:05:38.811Z,6.72
2019-05-28T07:10:57.270Z,7.20
2019-05-28T07:15:53.734Z,6.87
2019-05-28T07:21:00.302Z,8.05
2019-05-28T07:26:06.869Z,6.45
2019-05-28T07:31:13.619Z,7.60
2019-05-28T07:36:20.132Z,7.12
2019-05-28T07:41:26.611Z,6.03
2019-05-28T07:46:33.229Z,9.00
2019-05-28T07:51:40.794Z,11.15
2019-05-28T07:56:47.325Z,5.85
2019-05-28T08:01:54.326Z,5.83
2019-05-28T08:07:00.961Z,6.22
2019-05-28T08:12:07.608Z,5.65
2019-05-28T08:17:14.436Z,5.58
2019-05-28T08:22:21.286Z,5.33
2019-05-28T08:27:27.858Z,5.20
2019-05-28T08:32:36.646Z,5.47
2019-05-28T08:37:43.335Z,4.67
2019-05-28T08:42:50.076Z,5.50
2019-05-28T08:47:56.543Z,5.15
2019-05-28T08:53:03.561Z,5.70
2019-05-28T08:58:10.355Z,6.00
2019-05-28T09:03:17.174Z,5.40
2019-05-28T09:08:37.766Z,8.68
2019-05-28T09:13:32.148Z,5.03
2019-05-28T09:18:38.737Z,5.85
2019-05-28T09:23:45.254Z,5.17
2019-05-28T09:28:51.831Z,5.80
2019-05-28T09:33:58.457Z,4.90
2019-05-28T09:39:07.545Z,5.50
2019-05-28T09:44:14.143Z,5.50
2019-05-28T09:49:20.656Z,4.85
2019-05-28T09:54:27.213Z,5.90
2019-05-28T09:59:41.449Z,5.85
2019-05-28T10:04:49.128Z,5.95
2019-05-28T10:09:50.489Z,5.35
2019-05-28T10:14:57.342Z,5.37
2019-05-28T10:20:04.085Z,5.08
2019-05-28T10:25:11.802Z,5.87
2019-05-28T10:30:19.089Z,5.70
2019-05-28T10:35:26.203Z,5.37
2019-05-28T10:40:32.965Z,5.37
2019-05-28T10:45:39.672Z,5.33
2019-05-28T10:50:46.413Z,6.45
2019-05-28T10:55:55.759Z,5.67
2019-05-28T11:01:02.415Z,5.50
2019-05-28T11:06:09.199Z,6.08
2019-05-28T11:11:15.883Z,5.70
2019-05-28T11:16:23.598Z,5.65
2019-05-28T11:21:30.162Z,6.08
2019-05-28T11:26:36.837Z,5.78
2019-05-28T11:31:43.516Z,6.30
2019-05-28T11:36:50.112Z,5.85
2019-05-28T11:41:56.760Z,6.33
2019-05-28T11:47:03.304Z,6.08
2019-05-28T11:52:09.873Z,5.35
2019-05-28T11:57:16.520Z,4.95
2019-05-28T12:02:23.158Z,5.60
2019-05-28T12:07:29.822Z,4.95
2019-05-28T12:12:38.985Z,5.30
2019-05-28T12:17:45.870Z,5.62
2019-05-28T12:23:09.553Z,5.45
2019-05-28T12:28:01.298Z,5.75
2019-05-28T12:33:08.200Z,5.30
2019-05-28T12:38:14.753Z,6.58
2019-05-28T12:43:21.263Z,6.65
2019-05-28T12:48:27.888Z,6.70
2019-05-28T12:53:49.172Z,6.15
2019-05-28T12:58:43.677Z,6.72
2019-05-28T13:03:52.020Z,6.50
2019-05-28T13:08:59.010Z,6.92
2019-05-28T13:14:05.698Z,6.67
2019-05-28T13:19:12.432Z,7.50
2019-05-28T13:24:19.083Z,7.08
2019-05-28T13:29:25.659Z,7.60
2019-05-28T13:34:32.341Z,7.80
2019-05-28T13:39:38.857Z,7.58
2019-05-28T13:44:45.582Z,7.65
2019-05-28T13:49:52.212Z,7.97
2019-05-28T13:54:58.792Z,8.08
2019-05-28T14:00:08.107Z,7.45
2019-05-28T14:05:17.047Z,7.45
2019-05-28T14:10:24.078Z,8.25
2019-05-28T14:15:30.711Z,7.80
2019-05-28T14:20:37.366Z,7.70
2019-05-28T14:25:44.937Z,8.28
2019-05-28T14:30:59.938Z,7.80
2019-05-28T14:35:59.975Z,8.25
2019-05-28T14:41:06.815Z,8.05
2019-05-28T14:46:13.641Z,6.92
2019-05-28T14:51:20.232Z,8.25
2019-05-28T14:56:26.814Z,7.72
2019-05-28T15:01:33.411Z,8.08
2019-05-28T15:06:40.078Z,7.95
2019-05-28T15:11:46.779Z,8.13
2019-05-28T15:16:53.273Z,8.08
2019-05-28T15:21:59.862Z,8.58
2019-05-28T15:27:06.590Z,9.08
2019-05-28T15:32:13.160Z,9.05
2019-05-28T15:37:19.934Z,8.73
2019-05-28T15:42:26.657Z,7.90
2019-05-28T15:47:33.231Z,9.40
2019-05-28T15:52:39.866Z,8.80
2019-05-28T15:57:46.364Z,9.00
2019-05-28T16:02:53.170Z,9.18
2019-05-28T16:07:59.836Z,10.03
2019-05-28T16:13:06.582Z,8.98
2019-05-28T16:18:13.212Z,8.85
2019-05-28T16:23:19.629Z,9.00
2019-05-28T16:28:27.174Z,9.90
2019-05-28T16:33:34.780Z,12.85
2019-05-28T16:38:41.381Z,11.73
2019-05-28T16:43:48.049Z,11.80
2019-05-28T16:48:54.711Z,10.93
2019-05-28T16:54:18.226Z,10.78
2019-05-28T16:59:10.641Z,11.80
2019-05-28T17:04:18.288Z,13.48
2019-05-28T17:09:24.882Z,14.85
2019-05-28T17:14:31.594Z,14.85
2019-05-28T17:19:38.103Z,14.90
2019-05-28T17:24:46.067Z,16.93
2019-05-28T17:29:52.678Z,29.52
2019-05-28T17:34:59.208Z,29.90
2019-05-28T17:40:06.309Z,29.87
2019-05-28T17:45:15.022Z,23.22
2019-05-28T17:50:22.930Z,16.70
2019-05-28T17:55:29.537Z,18.52
2019-05-28T18:00:36.397Z,17.95
2019-05-28T18:05:42.919Z,16.17
2019-05-28T18:11:03.342Z,17.00
2019-05-28T18:15:57.703Z,15.72
2019-05-28T18:21:04.381Z,13.90
2019-05-28T18:26:11.062Z,9.58
2019-05-28T18:31:17.748Z,8.50
2019-05-28T18:36:24.705Z,8.35
2019-05-28T18:41:32.265Z,8.40
2019-05-28T18:46:38.921Z,8.88
2019-05-28T18:51:45.434Z,10.72
2019-05-28T18:56:51.988Z,8.95
2019-05-28T19:01:59.777Z,8.93
2019-05-28T19:07:07.770Z,9.30
2019-05-28T19:12:14.350Z,8.43
2019-05-28T19:17:21.075Z,7.75
2019-05-28T19:22:27.791Z,7.72
2019-05-28T19:27:35.510Z,7.45
2019-05-28T19:32:42.585Z,6.67
2019-05-28T19:37:49.449Z,8.65
2019-05-28T19:42:55.847Z,6.80
2019-05-28T19:48:02.539Z,8.20
2019-05-28T19:53:09.214Z,6.85
2019-05-28T19:58:15.895Z,7.30
2019-05-28T20:03:22.601Z,7.37
2019-05-28T20:08:29.246Z,8.50
2019-05-28T20:13:35.942Z,7.85
2019-05-28T20:18:42.504Z,7.70
2019-05-28T20:23:50.159Z,7.22
2019-05-28T20:29:07.804Z,7.60
2019-05-28T20:34:05.332Z,7.45
2019-05-28T20:39:12.166Z,8.50
2019-05-28T20:44:18.790Z,8.50
2019-05-28T20:49:25.171Z,8.95
2019-05-28T20:54:31.636Z,8.33
2019-05-28T20:59:38.160Z,9.65
2019-05-28T21:04:44.688Z,9.45
2019-05-28T21:09:52.177Z,9.83
2019-05-28T21:14:58.854Z,9.23
2019-05-28T21:20:06.500Z,10.18
2019-05-28T21:25:13.322Z,9.75
2019-05-28T21:30:30.289Z,9.58
2019-05-28T21:35:36.901Z,9.88
2019-05-28T21:40:43.485Z,9.78
2019-05-28T21:45:50.134Z,10.10
2019-05-28T21:50:56.765Z,10.45
2019-05-28T21:56:04.533Z,10.82
2019-05-28T22:01:18.860Z,11.80
2019-05-28T22:06:25.505Z,10.53
2019-05-28T22:11:32.211Z,11.15
2019-05-28T22:16:38.759Z,11.97
2019-05-28T22:21:45.317Z,11.10
2019-05-28T22:26:51.955Z,11.95
2019-05-28T22:31:58.771Z,13.00
2019-05-28T22:37:08.605Z,13.35
2019-05-28T22:42:15.240Z,12.78
2019-05-28T22:47:21.789Z,13.30
2019-05-28T22:52:28.247Z,13.50
2019-05-28T22:57:34.818Z,13.65
2019-05-28T23:02:41.211Z,13.93
2019-05-28T23:07:47.725Z,12.80
2019-05-28T23:12:54.282Z,13.08
2019-05-28T23:18:00.828Z,12.58
2019-05-28T23:23:07.420Z,12.05
2019-05-28T23:28:13.865Z,11.43
2019-05-28T23:33:20.354Z,12.60
2019-05-28T23:38:26.907Z,11.10
2019-05-28T23:43:33.456Z,10.90
2019-05-28T23:48:40.000Z,10.45
2019-05-28T23:53:46.639Z,10.10
2019-05-28T23:58:53.192Z,9.55
